createdAt,value
2019-04-01T00:01:00.865Z,99041.93
2019-04-01T00:03:33.247Z,99038.45
2019-04-01T00:06:07.677Z,99041.16
2019-04-01T00:08:39.711Z,99045.70
2019-04-01T00:11:11.845Z,99042.17
2019-04-01T00:13:43.795Z,99046.70
2019-04-01T00:16:15.841Z,99052.41
2019-04-01T00:19:02.089Z,99041.20
2019-04-01T00:21:21.590Z,99052.63
2019-04-01T00:23:53.652Z,99051.47
2019-04-01T00:26:25.620Z,99050.58
2019-04-01T00:28:57.660Z,99048.94
2019-04-01T00:31:30.233Z,99050.91
2019-04-01T00:34:02.327Z,99050.12
2019-04-01T00:36:34.687Z,99053.02
2019-04-01T00:39:08.432Z,99055.00
2019-04-01T00:41:58.520Z,99058.64
2019-04-01T00:44:30.789Z,99058.38
2019-04-01T00:47:02.933Z,99065.19
2019-04-01T00:49:35.012Z,99066.30
2019-04-01T00:52:07.008Z,99060.74
2019-04-01T00:54:39.072Z,99059.16
2019-04-01T00:57:11.603Z,99064.03
2019-04-01T00:59:43.562Z,99069.06
2019-04-01T01:02:15.548Z,99062.08
2019-04-01T01:04:47.605Z,99071.78
2019-04-01T01:07:19.620Z,99071.44
2019-04-01T01:09:51.615Z,99072.39
2019-04-01T01:12:23.631Z,99075.08
2019-04-01T01:14:55.682Z,99071.17
2019-04-01T01:17:27.683Z,99083.09
2019-04-01T01:19:59.891Z,99085.31
2019-04-01T01:22:31.924Z,99088.41
2019-04-01T01:25:03.944Z,99095.92
2019-04-01T01:27:36.523Z,99093.78
2019-04-01T01:30:09.329Z,99097.38
2019-04-01T01:32:41.317Z,99093.06
2019-04-01T01:35:13.290Z,99099.19
2019-04-01T01:37:45.319Z,99099.25
2019-04-01T01:40:17.298Z,99102.39
2019-04-01T01:42:49.270Z,99108.12
2019-04-01T01:45:21.831Z,99105.52
2019-04-01T01:47:53.809Z,99105.11
2019-04-01T01:50:27.123Z,99097.27
2019-04-01T01:53:00.914Z,99102.95
2019-04-01T01:55:34.119Z,99104.30
2019-04-01T01:58:06.092Z,99103.02
2019-04-01T02:00:40.025Z,99104.81
2019-04-01T02:03:13.520Z,99108.34
2019-04-01T02:05:45.548Z,99114.84
2019-04-01T02:08:20.231Z,99121.85
2019-04-01T02:10:52.268Z,99127.53
2019-04-01T02:13:24.459Z,99124.02
2019-04-01T02:15:56.536Z,99123.59
2019-04-01T02:18:28.563Z,99118.36
2019-04-01T02:21:00.668Z,99121.88
2019-04-01T02:23:32.819Z,99126.23
2019-04-01T02:26:04.890Z,99128.47
2019-04-01T02:28:36.837Z,99119.75
2019-04-01T02:31:09.279Z,99122.81
2019-04-01T02:33:41.268Z,99117.14
2019-04-01T02:36:13.271Z,99117.19
2019-04-01T02:38:46.481Z,99121.52
2019-04-01T02:41:18.581Z,99124.15
2019-04-01T02:43:50.991Z,99119.81
2019-04-01T02:46:22.996Z,99119.81
2019-04-01T02:48:54.939Z,99124.19
2019-04-01T02:51:26.908Z,99132.50
2019-04-01T02:53:58.923Z,99126.83
2019-04-01T02:56:31.087Z,99121.59
2019-04-01T02:59:03.133Z,99131.19
2019-04-01T03:01:35.220Z,99129.00
2019-04-01T03:04:07.266Z,99137.33
2019-04-01T03:06:39.319Z,99130.33
2019-04-01T03:09:11.301Z,99134.69
2019-04-01T03:11:43.393Z,99137.30
2019-04-01T03:14:15.405Z,99132.48
2019-04-01T03:16:47.375Z,99137.27
2019-04-01T03:19:19.925Z,99140.33
2019-04-01T03:21:51.882Z,99148.16
2019-04-01T03:24:23.859Z,99138.13
2019-04-01T03:26:55.797Z,99148.59
2019-04-01T03:29:28.047Z,99144.19
2019-04-01T03:32:00.860Z,99148.13
2019-04-01T03:34:33.075Z,99149.00
2019-04-01T03:37:05.036Z,99148.98
2019-04-01T03:39:37.185Z,99143.29
2019-04-01T03:42:09.142Z,99143.28
2019-04-01T03:44:41.570Z,99148.08
2019-04-01T03:47:13.642Z,99152.89
2019-04-01T03:49:45.699Z,99150.68
2019-04-01T03:52:17.663Z,99148.49
2019-04-01T03:54:49.778Z,99155.43
2019-04-01T03:57:22.717Z,99149.73
2019-04-01T03:59:54.725Z,99146.66
2019-04-01T04:02:26.669Z,99148.88
2019-04-01T04:05:00.602Z,99149.78
2019-04-01T04:07:32.375Z,99145.89
2019-04-01T04:10:04.872Z,99147.20
2019-04-01T04:12:37.278Z,99145.89
2019-04-01T04:15:09.351Z,99148.11
2019-04-01T04:17:41.327Z,99153.75
2019-04-01T04:20:17.991Z,99151.14
2019-04-01T04:22:49.994Z,99151.57
2019-04-01T04:25:21.924Z,99147.64
2019-04-01T04:27:54.300Z,99146.77
2019-04-01T04:30:26.345Z,99152.92
2019-04-01T04:32:58.441Z,99151.12
2019-04-01T04:35:30.979Z,99157.23
2019-04-01T04:38:02.970Z,99151.08
2019-04-01T04:40:34.992Z,99159.41
2019-04-01T04:43:07.357Z,99162.46
2019-04-01T04:45:39.402Z,99163.33
2019-04-01T04:48:12.573Z,99169.44
2019-04-01T04:50:44.753Z,99163.33
2019-04-01T04:53:16.750Z,99163.30
2019-04-01T04:55:48.811Z,99167.60
2019-04-01T04:58:21.311Z,99162.20
2019-04-01T05:00:53.350Z,99164.31
2019-04-01T05:03:25.368Z,99162.13
2019-04-01T05:05:57.373Z,99173.55
2019-04-01T05:08:29.545Z,99183.22
2019-04-01T05:11:01.661Z,99189.36
2019-04-01T05:13:33.767Z,99192.91
2019-04-01T05:16:05.752Z,99190.27
2019-04-01T05:18:38.197Z,99198.95
2019-04-01T05:21:11.415Z,99195.84
2019-04-01T05:23:44.011Z,99202.81
2019-04-01T05:26:17.261Z,99206.75
2019-04-01T05:28:50.478Z,99210.28
2019-04-01T05:31:24.575Z,99206.77
2019-04-01T05:34:00.060Z,99217.25
2019-04-01T05:36:32.573Z,99205.88
2019-04-01T05:39:06.647Z,99201.23
2019-04-01T05:41:39.178Z,99186.05
2019-04-01T05:44:13.794Z,99192.77
2019-04-01T05:46:46.065Z,99197.62
2019-04-01T05:49:18.406Z,99193.73
2019-04-01T05:51:50.799Z,99187.53
2019-04-01T05:54:22.798Z,99195.31
2019-04-01T05:56:54.874Z,99188.03
2019-04-01T05:59:28.315Z,99190.31
2019-04-01T06:02:01.790Z,99192.04
2019-04-01T06:04:33.985Z,99182.35
2019-04-01T06:07:06.595Z,99179.58
2019-04-01T06:09:39.828Z,99188.50
2019-04-01T06:12:12.399Z,99188.23
2019-04-01T06:14:44.579Z,99188.52
2019-04-01T06:17:16.762Z,99178.87
2019-04-01T06:19:48.787Z,99178.36
2019-04-01T06:22:21.239Z,99172.97
2019-04-01T06:24:53.969Z,99174.81
2019-04-01T06:27:26.743Z,99178.31
2019-04-01T06:29:59.500Z,99173.28
2019-04-01T06:32:32.144Z,99162.63
2019-04-01T06:35:04.558Z,99170.09
2019-04-01T06:37:36.624Z,99168.01
2019-04-01T06:40:08.841Z,99167.67
2019-04-01T06:42:40.829Z,99172.46
2019-04-01T06:45:13.742Z,99172.78
2019-04-01T06:47:46.233Z,99164.84
2019-04-01T06:50:18.350Z,99181.58
2019-04-01T06:52:50.673Z,99187.25
2019-04-01T06:55:22.653Z,99178.84
2019-04-01T06:57:54.706Z,99183.67
2019-04-01T07:00:27.649Z,99189.09
2019-04-01T07:03:00.465Z,99186.00
2019-04-01T07:05:32.608Z,99195.71
2019-04-01T07:08:04.615Z,99196.56
2019-04-01T07:10:36.695Z,99182.97
2019-04-01T07:13:08.809Z,99192.75
2019-04-01T07:15:40.859Z,99188.30
2019-04-01T07:18:12.905Z,99196.55
2019-04-01T07:20:44.864Z,99199.34
2019-04-01T07:23:17.003Z,99188.03
2019-04-01T07:25:49.089Z,99191.11
2019-04-01T07:28:21.278Z,99199.77
2019-04-01T07:30:53.665Z,99194.98
2019-04-01T07:33:25.806Z,99190.69
2019-04-01T07:35:57.901Z,99215.34
2019-04-01T07:38:30.130Z,99210.78
2019-04-01T07:41:02.211Z,99205.59
2019-04-01T07:43:34.177Z,99210.59
2019-04-01T07:46:08.118Z,99209.42
2019-04-01T07:48:40.259Z,99210.24
2019-04-01T07:51:12.410Z,99210.06
2019-04-01T07:53:44.765Z,99212.30
2019-04-01T07:56:19.071Z,99210.02
2019-04-01T07:58:51.101Z,99200.89
2019-04-01T08:01:23.202Z,99198.14
2019-04-01T08:03:55.278Z,99199.48
2019-04-01T08:06:27.587Z,99197.11
2019-04-01T08:09:00.101Z,99198.64
2019-04-01T08:11:32.063Z,99202.48
2019-04-01T08:14:04.509Z,99193.17
2019-04-01T08:16:36.651Z,99208.71
2019-04-01T08:19:10.104Z,99203.92
2019-04-01T08:21:42.228Z,99208.19
2019-04-01T08:24:14.263Z,99207.44
2019-04-01T08:26:46.208Z,99209.20
2019-04-01T08:29:29.493Z,99222.48
2019-04-01T08:31:51.966Z,99211.97
2019-04-01T08:34:24.051Z,99209.66
2019-04-01T08:36:56.154Z,99202.73
2019-04-01T08:39:28.170Z,99201.30
2019-04-01T08:42:00.386Z,99200.73
2019-04-01T08:44:32.509Z,99198.73
2019-04-01T08:47:04.516Z,99204.02
2019-04-01T08:49:36.588Z,99195.95
2019-04-01T08:52:08.697Z,99193.84
2019-04-01T08:54:41.087Z,99185.36
2019-04-01T08:57:13.076Z,99191.09
2019-04-01T08:59:45.105Z,99190.09
2019-04-01T09:02:18.579Z,99188.55
2019-04-01T09:04:51.105Z,99180.02
2019-04-01T09:07:23.359Z,99181.52
2019-04-01T09:09:57.511Z,99181.95
2019-04-01T09:12:30.384Z,99175.49
2019-04-01T09:15:03.179Z,99186.17
2019-04-01T09:17:40.252Z,99176.70
2019-04-01T09:20:11.196Z,99179.92
2019-04-01T09:22:43.375Z,99167.52
2019-04-01T09:25:15.483Z,99192.42
2019-04-01T09:27:47.457Z,99169.98
2019-04-01T09:30:21.258Z,99167.23
2019-04-01T09:32:53.265Z,99173.17
2019-04-01T09:35:25.277Z,99164.76
2019-04-01T09:37:58.907Z,99165.92
2019-04-01T09:40:31.331Z,99164.27
2019-04-01T09:43:03.317Z,99186.66
2019-04-01T09:45:38.158Z,99174.75
2019-04-01T09:48:10.241Z,99163.51
2019-04-01T09:50:42.261Z,99158.17
2019-04-01T09:53:14.349Z,99164.02
2019-04-01T09:55:46.351Z,99165.06
2019-04-01T09:58:18.500Z,99157.56
2019-04-01T10:00:53.242Z,99155.58
2019-04-01T10:03:24.761Z,99149.30
2019-04-01T10:05:56.831Z,99166.38
2019-04-01T10:08:41.408Z,99156.71
2019-04-01T10:11:02.827Z,99160.00
2019-04-01T10:13:34.943Z,99148.21
2019-04-01T10:16:06.917Z,99154.90
2019-04-01T10:18:40.396Z,99138.47
2019-04-01T10:21:13.698Z,99137.75
2019-04-01T10:23:45.843Z,99137.55
2019-04-01T10:26:17.995Z,99136.94
2019-04-01T10:28:51.465Z,99146.80
2019-04-01T10:31:23.594Z,99150.27
2019-04-01T10:33:55.869Z,99132.08
2019-04-01T10:36:27.943Z,99134.62
2019-04-01T10:39:00.217Z,99136.23
2019-04-01T10:41:32.203Z,99123.76
2019-04-01T10:44:04.994Z,99141.45
2019-04-01T10:46:40.646Z,99142.55
2019-04-01T10:49:13.358Z,99136.19
2019-04-01T10:51:45.529Z,99130.72
2019-04-01T10:54:18.066Z,99131.89
2019-04-01T10:56:50.149Z,99128.16
2019-04-01T10:59:22.188Z,99130.08
2019-04-01T11:01:54.309Z,99127.86
2019-04-01T11:04:26.416Z,99124.80
2019-04-01T11:06:58.824Z,99123.36
2019-04-01T11:09:38.226Z,99123.57
2019-04-01T11:12:05.701Z,99140.17
2019-04-01T11:14:38.876Z,99130.67
2019-04-01T11:17:11.175Z,99123.58
2019-04-01T11:19:44.977Z,99127.66
2019-04-01T11:22:17.027Z,99120.92
2019-04-01T11:24:52.293Z,99118.34
2019-04-01T11:27:24.309Z,99120.75
2019-04-01T11:29:56.437Z,99125.81
2019-04-01T11:32:30.013Z,99112.45
2019-04-01T11:35:02.259Z,99109.86
2019-04-01T11:37:34.308Z,99094.69
2019-04-01T11:40:11.080Z,99103.49
2019-04-01T11:42:41.083Z,99106.36
2019-04-01T11:45:13.922Z,99101.02
2019-04-01T11:47:46.269Z,99104.97
2019-04-01T11:50:18.504Z,99120.75
2019-04-01T11:52:51.044Z,99128.72
2019-04-01T11:55:23.559Z,99136.84
2019-04-01T11:57:55.554Z,99138.58
2019-04-01T12:00:27.851Z,99148.41
2019-04-01T12:02:59.851Z,99151.86
2019-04-01T12:05:32.139Z,99156.70
2019-04-01T12:08:04.425Z,99157.36
2019-04-01T12:10:37.464Z,99172.39
2019-04-01T12:13:09.461Z,99170.45
2019-04-01T12:15:41.945Z,99172.72
2019-04-01T12:18:14.224Z,99164.39
2019-04-01T12:20:46.288Z,99166.56
2019-04-01T12:23:18.515Z,99160.67
2019-04-01T12:25:50.891Z,99164.12
2019-04-01T12:28:23.019Z,99161.55
2019-04-01T12:30:55.067Z,99159.74
2019-04-01T12:33:27.112Z,99162.80
2019-04-01T12:35:59.751Z,99165.98
2019-04-01T12:38:31.885Z,99164.77
2019-04-01T12:41:05.841Z,99163.19
2019-04-01T12:43:42.455Z,99160.33
2019-04-01T12:46:14.951Z,99142.03
2019-04-01T12:48:47.108Z,99137.95
2019-04-01T12:51:19.263Z,99136.48
2019-04-01T12:53:51.580Z,99133.77
2019-04-01T12:56:25.292Z,99129.00
2019-04-01T12:58:57.311Z,99124.19
2019-04-01T13:01:29.419Z,99118.55
2019-04-01T13:04:04.198Z,99122.20
2019-04-01T13:06:37.783Z,99134.23
2019-04-01T13:09:10.778Z,99122.93
2019-04-01T13:11:43.039Z,99113.34
2019-04-01T13:14:15.325Z,99105.02
2019-04-01T13:16:47.555Z,99117.86
2019-04-01T13:19:19.535Z,99117.91
2019-04-01T13:21:51.669Z,99101.83
2019-04-01T13:24:25.375Z,99096.77
2019-04-01T13:26:57.391Z,99096.89
2019-04-01T13:29:30.032Z,99103.17
2019-04-01T13:32:02.027Z,99105.67
2019-04-01T13:34:34.070Z,99107.59
2019-04-01T13:37:06.442Z,99098.97
2019-04-01T13:39:38.526Z,99095.09
2019-04-01T13:42:10.991Z,99093.10
2019-04-01T13:44:44.858Z,99095.10
2019-04-01T13:47:16.896Z,99094.08
2019-04-01T13:49:48.926Z,99090.66
2019-04-01T13:52:21.023Z,99079.37
2019-04-01T13:54:53.109Z,99082.59
2019-04-01T13:57:25.599Z,99084.03
2019-04-01T13:59:57.555Z,99079.93
2019-04-01T14:02:31.104Z,99084.30
2019-04-01T14:05:05.937Z,99080.83
2019-04-01T14:07:37.025Z,99076.91
2019-04-01T14:10:09.592Z,99078.94
2019-04-01T14:12:41.789Z,99077.06
2019-04-01T14:15:14.195Z,99083.05
2019-04-01T14:17:46.201Z,99073.92
2019-04-01T14:20:18.510Z,99082.96
2019-04-01T14:22:53.593Z,99068.09
2019-04-01T14:25:24.800Z,99064.87
2019-04-01T14:27:57.565Z,99069.58
2019-04-01T14:30:29.558Z,99058.68
2019-04-01T14:33:03.494Z,99063.68
2019-04-01T14:35:36.020Z,99054.96
2019-04-01T14:38:08.188Z,99059.98
2019-04-01T14:40:40.619Z,99060.04
2019-04-01T14:43:12.689Z,99058.41
2019-04-01T14:45:44.900Z,99049.86
2019-04-01T14:48:16.863Z,99047.48
2019-04-01T14:50:48.887Z,99053.39
2019-04-01T14:53:21.143Z,99051.57
2019-04-01T14:55:53.145Z,99031.09
2019-04-01T14:58:25.238Z,99037.47
2019-04-01T15:00:57.292Z,99023.11
2019-04-01T15:03:31.083Z,99029.95
2019-04-01T15:06:03.160Z,99026.17
2019-04-01T15:08:35.362Z,99036.70
2019-04-01T15:11:07.340Z,99035.56
2019-04-01T15:13:39.542Z,99011.64
2019-04-01T15:16:11.859Z,99009.97
2019-04-01T15:18:45.370Z,99022.10
2019-04-01T15:21:17.669Z,99003.80
2019-04-01T15:23:53.121Z,99014.39
2019-04-01T15:26:23.998Z,99015.01
2019-04-01T15:28:56.124Z,99012.30
2019-04-01T15:31:28.311Z,99007.71
2019-04-01T15:34:00.785Z,99010.46
2019-04-01T15:36:32.852Z,98998.73
2019-04-01T15:39:07.060Z,99001.86
2019-04-01T15:41:39.118Z,99005.85
2019-04-01T15:44:11.251Z,98992.61
2019-04-01T15:46:44.373Z,99001.33
2019-04-01T15:49:20.209Z,99006.27
2019-04-01T15:51:52.381Z,99001.47
2019-04-01T15:54:24.824Z,98995.90
2019-04-01T15:56:57.431Z,99004.99
2019-04-01T15:59:30.527Z,99000.44
2019-04-01T16:02:02.718Z,99003.20
2019-04-01T16:04:35.043Z,98997.66
2019-04-01T16:07:08.764Z,99011.95
2019-04-01T16:09:41.921Z,99002.45
2019-04-01T16:12:15.995Z,99003.80
2019-04-01T16:14:48.243Z,99006.25
2019-04-01T16:17:20.547Z,99006.43
2019-04-01T16:19:52.579Z,99007.02
2019-04-01T16:22:24.853Z,98997.52
2019-04-01T16:24:56.974Z,99008.27
2019-04-01T16:27:31.968Z,98996.00
2019-04-01T16:30:06.113Z,99000.14
2019-04-01T16:32:38.311Z,99002.83
2019-04-01T16:35:10.964Z,98998.08
2019-04-01T16:37:43.693Z,99001.42
2019-04-01T16:40:20.315Z,99002.07
2019-04-01T16:42:55.550Z,98996.93
2019-04-01T16:45:26.117Z,99000.11
2019-04-01T16:47:58.147Z,99001.95
2019-04-01T16:50:30.326Z,99000.38
2019-04-01T16:53:03.408Z,99001.34
2019-04-01T16:55:36.246Z,99009.89
2019-04-01T16:58:09.933Z,99002.58
2019-04-01T17:00:42.470Z,99000.95
2019-04-01T17:03:16.305Z,99000.20
2019-04-01T17:05:48.376Z,99009.13
2019-04-01T17:08:20.489Z,99006.20
2019-04-01T17:10:52.619Z,99012.52
2019-04-01T17:13:24.881Z,99016.64
2019-04-01T17:15:56.987Z,99019.37
2019-04-01T17:18:29.432Z,99015.13
2019-04-01T17:21:05.072Z,99012.63
2019-04-01T17:23:37.388Z,99016.72
2019-04-01T17:26:09.788Z,99022.14
2019-04-01T17:28:41.925Z,99021.77
2019-04-01T17:31:13.929Z,99020.16
2019-04-01T17:33:46.855Z,99022.03
2019-04-01T17:36:20.285Z,99030.97
2019-04-01T17:38:53.370Z,99029.73
2019-04-01T17:41:28.778Z,99033.35
2019-04-01T17:44:00.830Z,99043.55
2019-04-01T17:46:32.881Z,99043.71
2019-04-01T17:49:04.940Z,99048.18
2019-04-01T17:51:38.511Z,99053.99
2019-04-01T17:54:10.960Z,99057.52
2019-04-01T17:56:43.081Z,99059.00
2019-04-01T17:59:15.500Z,99067.41
2019-04-01T18:01:47.832Z,99063.14
2019-04-01T18:04:20.526Z,99072.86
2019-04-01T18:06:52.556Z,99068.95
2019-04-01T18:09:24.538Z,99066.38
2019-04-01T18:11:56.534Z,99069.52
2019-04-01T18:14:28.624Z,99071.83
2019-04-01T18:17:00.771Z,99076.71
2019-04-01T18:19:32.762Z,99076.81
2019-04-01T18:22:09.876Z,99079.52
2019-04-01T18:24:40.805Z,99084.85
2019-04-01T18:27:13.137Z,99084.09
2019-04-01T18:29:45.106Z,99076.75
2019-04-01T18:32:17.147Z,99082.09
2019-04-01T18:34:49.271Z,99084.78
2019-04-01T18:37:21.487Z,99084.81
2019-04-01T18:39:57.011Z,99080.98
2019-04-01T18:42:27.615Z,99093.35
2019-04-01T18:45:01.871Z,99101.30
2019-04-01T18:47:33.901Z,99098.73
2019-04-01T18:50:07.259Z,99108.89
2019-04-01T18:52:39.360Z,99098.88
2019-04-01T18:55:11.626Z,99105.08
2019-04-01T18:57:43.845Z,99100.36
2019-04-01T19:00:18.314Z,99102.16
2019-04-01T19:02:55.179Z,99115.81
2019-04-01T19:05:26.072Z,99114.58
2019-04-01T19:07:58.113Z,99108.08
2019-04-01T19:10:31.483Z,99110.75
2019-04-01T19:13:06.121Z,99122.66
2019-04-01T19:15:40.997Z,99117.05
2019-04-01T19:18:11.595Z,99117.55
2019-04-01T19:20:55.613Z,99117.16
2019-04-01T19:23:17.489Z,99117.20
2019-04-01T19:25:50.336Z,99125.63
2019-04-01T19:28:22.472Z,99118.21
2019-04-01T19:30:56.891Z,99116.02
2019-04-01T19:33:29.057Z,99121.82
2019-04-01T19:36:04.583Z,99120.97
2019-04-01T19:38:36.609Z,99109.21
2019-04-01T19:41:10.394Z,99128.08
2019-04-01T19:43:42.508Z,99111.52
2019-04-01T19:46:15.962Z,99116.34
2019-04-01T19:48:48.201Z,99116.84
2019-04-01T19:51:21.156Z,99122.97
2019-04-01T19:53:53.513Z,99126.51
2019-04-01T19:56:25.647Z,99123.91
2019-04-01T19:58:57.829Z,99126.13
2019-04-01T20:01:30.343Z,99118.27
2019-04-01T20:04:02.750Z,99114.83
2019-04-01T20:06:34.864Z,99120.09
2019-04-01T20:09:08.851Z,99117.07
2019-04-01T20:11:41.133Z,99116.22
2019-04-01T20:14:13.239Z,99123.67
2019-04-01T20:16:47.125Z,99117.58
2019-04-01T20:19:19.410Z,99113.20
2019-04-01T20:21:53.181Z,99122.84
2019-04-01T20:24:25.283Z,99123.31
2019-04-01T20:26:57.274Z,99126.84
2019-04-01T20:29:30.362Z,99129.48
2019-04-01T20:32:16.216Z,99121.62
2019-04-01T20:34:37.544Z,99125.14
2019-04-01T20:37:12.216Z,99127.77
2019-04-01T20:39:44.530Z,99116.45
2019-04-01T20:42:17.228Z,99120.84
2019-04-01T20:44:49.580Z,99120.41
2019-04-01T20:47:21.728Z,99123.50
2019-04-01T20:49:53.894Z,99120.02
2019-04-01T20:52:25.963Z,99132.70
2019-04-01T20:54:58.531Z,99116.09
2019-04-01T20:57:30.742Z,99128.37
2019-04-01T21:00:02.789Z,99120.06
2019-04-01T21:02:34.763Z,99121.84
2019-04-01T21:05:07.819Z,99112.65
2019-04-01T21:07:40.189Z,99119.25
2019-04-01T21:10:13.957Z,99123.61
2019-04-01T21:12:46.186Z,99117.05
2019-04-01T21:15:18.356Z,99122.77
2019-04-01T21:17:52.044Z,99105.30
2019-04-01T21:20:24.298Z,99106.63
2019-04-01T21:22:57.040Z,99109.23
2019-04-01T21:25:30.034Z,99112.31
2019-04-01T21:28:02.208Z,99097.91
2019-04-01T21:30:34.283Z,99103.17
2019-04-01T21:33:06.369Z,99101.02
2019-04-01T21:35:38.603Z,99103.20
2019-04-01T21:38:10.990Z,99099.27
2019-04-01T21:40:43.084Z,99103.22
2019-04-01T21:43:15.161Z,99102.79
2019-04-01T21:45:47.387Z,99100.15
2019-04-01T21:48:19.535Z,99084.02
2019-04-01T21:50:53.114Z,99083.59
2019-04-01T21:53:25.435Z,99082.72
2019-04-01T21:55:57.753Z,99083.58
2019-04-01T21:58:30.199Z,99085.36
2019-04-01T22:01:02.585Z,99082.30
2019-04-01T22:03:34.696Z,99084.48
2019-04-01T22:06:07.241Z,99075.33
2019-04-01T22:08:39.254Z,99088.84
2019-04-01T22:11:11.304Z,99077.92
2019-04-01T22:13:43.367Z,99085.80
2019-04-01T22:16:15.348Z,99068.80
2019-04-01T22:18:47.319Z,99082.31
2019-04-01T22:21:19.972Z,99071.39
2019-04-01T22:23:51.918Z,99067.05
2019-04-01T22:26:23.983Z,99079.71
2019-04-01T22:28:55.906Z,99061.82
2019-04-01T22:31:30.531Z,99061.83
2019-04-01T22:34:04.325Z,99061.83
2019-04-01T22:36:36.327Z,99063.98
2019-04-01T22:39:10.238Z,99059.20
2019-04-01T22:41:42.291Z,99068.81
2019-04-01T22:44:15.743Z,99051.36
2019-04-01T22:46:47.985Z,99054.42
2019-04-01T22:49:20.139Z,99037.83
2019-04-01T22:51:52.303Z,99043.05
2019-04-01T22:54:24.332Z,99040.00
2019-04-01T22:56:56.455Z,99037.83
2019-04-01T22:59:28.796Z,99026.48
2019-04-01T23:02:01.317Z,99029.97
2019-04-01T23:04:33.449Z,99022.96
2019-04-01T23:07:05.468Z,99032.58
2019-04-01T23:09:37.483Z,99021.20
2019-04-01T23:12:09.446Z,99010.69
2019-04-01T23:14:41.462Z,99021.14
2019-04-01T23:17:13.433Z,99022.43
2019-04-01T23:19:45.405Z,99011.93
2019-04-01T23:22:17.435Z,99003.60
2019-04-01T23:24:49.394Z,99007.50
2019-04-01T23:27:21.537Z,99007.94
2019-04-01T23:29:53.481Z,99008.81
2019-04-01T23:32:25.425Z,99001.84
2019-04-01T23:34:57.384Z,99000.09
2019-04-01T23:37:30.020Z,98985.27
2019-04-01T23:40:02.399Z,98992.65
2019-04-01T23:42:37.722Z,99010.63
2019-04-01T23:45:09.772Z,98997.94
2019-04-01T23:47:41.742Z,98994.41
2019-04-01T23:50:13.740Z,98982.23
2019-04-01T23:52:45.744Z,98994.04
2019-04-01T23:55:17.816Z,99004.95
2019-04-01T23:57:50.375Z,98982.28
